NLB weather

Nueva Laguna Blanca, S.A. de C.V. Airport
Palizada, Campeche, Mexico

Public forecast

Using degrees Celsius for public forecast. Weather courtesy of forecast.io.

Closest aviation weather report (METAR) to Nueva Laguna Blanca, S.A. de C.V. Airport

Closest report is Ciudad del Carmen International Airport, 31.3 nm (57.9 km) N. Retrieved 2020/02/28 00:40 UTC (2 hours ago):

MMCE 280040Z 02008KT 4SM BKN010 OVC040 22/15 A3023 RMK 8/7// HZY OCNL DROPS

Closest aviation forecast (TAF) to Nueva Laguna Blanca, S.A. de C.V. Airport

Forecast is more than 6 hours old.

Closest forecast is Ciudad del Carmen International Airport, 31.3 nm (57.9 km) N. Retrieved 2020/02/27 18:16 UTC (8 hours ago):

TAF MMCE 271709Z 2718/2818 36010G20KT 5SM -RA BKN010 OVC070 FM280200 04010KT 3SM HZ OVC006 FM281000 00000KT 1SM DZ OVC005 FM281500 10010KT 4SM HZ SCT010 OVC020